Drachten Airfield

EHDR · Friesland, 荷兰

罗盘
风向 的 风向 的 风向 到 风向 260° Drachten Airfield 7/25
风: 9 kt, 3 beaufort

9 kt

1 kt
改变
0 1.000 2.000 3.000 4.000 5.000
FEW 1.500 ft
SCT 2.400 ft
BKN 2.700 ft
METAR EHLW 072328Z AUTO 26009KT 210V320 9999 -DZ FEW015CB SCT024 BKN027 04/02 Q1008 WHT

METAR Drachten Airfield - EHDR

Drachten Airfield是,荷兰中的小机场。 该机场有一条跑道: 7/25. 该领域的国际民航组织标志是EHDR.

这份报告是针对2022年12月8日 00:28, 当地时间在Leeuwarden Air Base进行的。

机场观察

风向为260°,速度为9 kt。 风向在210°和320°之间变化。

可见度为10 km 或者更多。

有几云 积雨云在1.500 ft的高度, 疏云,零星散落的云朵在2.400 ft的高度 和 碎云在2.700 ft的高度。 破损或更高的上限为2.700 ft。

当前天气为光 细雨。 温度为4 °C,阵风为-2 °C。 露点为2 °C,相对湿度为87%。 海平面上的气压为1008 hPa (QNH)。

白天

今天,太阳从08:34升起,在16:19降落。 这适用于Drachten Airfield,世界夏令时可能有所不同。 当地时间与世界标准时间之间的时差为+1 小时。 当前,没有夏令时有效。

公司介绍

我们没有关于这个机场的公司信息。

体会

到Vliegles.nl去找飞行课程,跳伞和其他飞行体验。 浏览页面,了解Drachten Airfield附近所有可用的活动。 你也可以使用搜索功能来寻找你所在地附近的特定飞行课程、跳伞或其他飞行体验。

跑道

Id 标题 侧风 逆风 侧风 %
7/25 074°-254° 9 kt 10 %

逆风成分最大的方向会被突出显示,并用于横风计算。 这并不一定意味着这个方向在使用。

乌云

1.500 ft FEW 几云 积雨云
2.400 ft SCT 疏云,零星散落的云朵
2.700 ft BKN 碎云

温度 & 天气

天气 光 细雨
温度 4 °C
露点 2 °C
相对湿度 87%
风寒 -2 °C
Kp-index 3 (0-9)

白天

日出
08:36 (7:58)
中午
12:28
日落
16:20

小工具

你想在你的网站上有一个关于Drachten Airfield的当前航空天气(METAR)的小部件吗?

显示HTML代码

我们和第三方通过cookies跟踪您在我们网站上的互联网行为。如果你继续,我们认为你同意我们的饼干政策